Time;durP1;ratioP1;P1;durP2;ratioP2;P2;SDS_P1;SDS_P2;PMS_P1;PMS_P2;Temp;Humidity;BMP_temperature;BMP_pressure;BME280_temperature;BME280_humidity;BME280_pressure;Samples;Min_cycle;Max_cycle;Signal;HPM_P1;HPM_P2
2021/11/06 00:00:45;;;;;;;10.47;7.83;;;6.20;99.90;6.00;101507.00;;;;4937812;28;107292;-66
2021/11/06 00:03:11;;;;;;;15.37;8.20;;;6.20;99.90;6.00;101506.00;;;;4938441;28;116112;-66
2021/11/06 00:05:38;;;;;;;11.10;6.60;;;6.20;99.90;6.00;101508.00;;;;4937523;28;116969;-66
2021/11/06 00:08:04;;;;;;;14.27;9.73;;;6.10;99.90;6.00;101518.00;;;;4938598;28;87663;-66
2021/11/06 00:10:29;;;;;;;14.10;8.67;;;6.10;99.90;6.00;101512.00;;;;4938405;28;88745;-66
2021/11/06 00:12:56;;;;;;;14.47;8.47;;;6.10;99.90;5.90;101517.00;;;;4939022;28;88427;-66
2021/11/06 00:15:22;;;;;;;23.60;8.90;;;6.00;99.90;5.90;101524.00;;;;4938641;28;88295;-67
2021/11/06 00:17:48;;;;;;;12.37;7.60;;;6.10;99.90;5.90;101523.00;;;;4938743;28;87847;-66
2021/11/06 00:20:16;;;;;;;15.37;9.23;;;6.10;99.90;5.90;101527.00;;;;4938653;28;99830;-66
2021/11/06 00:22:42;;;;;;;12.77;7.83;;;6.00;99.90;5.90;101538.00;;;;4953417;28;87870;-66
2021/11/06 00:25:10;;;;;;;14.77;8.60;;;6.10;99.90;5.90;101539.00;;;;4937503;28;118104;-65
2021/11/06 00:27:36;;;;;;;14.20;8.77;;;6.10;99.90;5.90;101534.00;;;;4938525;28;86979;-66
2021/11/06 00:30:05;;;;;;;10.67;8.53;;;6.30;99.90;5.90;101537.00;;;;4938551;28;87823;-66
2021/11/06 00:32:32;;;;;;;12.00;8.67;;;6.10;99.90;6.00;101534.00;;;;4937751;28;88508;-66
2021/11/06 00:34:58;;;;;;;14.47;7.80;;;6.00;99.90;6.00;101521.00;;;;4937811;28;90169;-66
2021/11/06 00:37:24;;;;;;;12.67;8.07;;;6.10;99.90;6.00;101539.00;;;;4937716;28;87624;-65
2021/11/06 00:39:50;;;;;;;13.90;8.80;;;6.10;99.90;6.00;101525.00;;;;4937824;28;87988;-66
2021/11/06 00:42:17;;;;;;;16.80;8.17;;;6.10;99.90;6.00;101523.00;;;;4937454;28;107810;-66
2021/11/06 00:44:42;;;;;;;15.63;8.80;;;6.10;99.90;6.10;101520.00;;;;4938513;28;87831;-66
2021/11/06 00:47:10;;;;;;;15.53;9.70;;;6.20;99.90;6.10;101524.00;;;;4936866;28;109658;-66
2021/11/06 00:49:36;;;;;;;10.93;7.03;;;6.20;99.90;6.10;101525.00;;;;4938817;28;87770;-64
2021/11/06 00:52:03;;;;;;;17.23;8.90;;;6.20;99.90;6.10;101528.00;;;;4938007;28;101920;-66
2021/11/06 00:54:29;;;;;;;14.57;8.10;;;6.20;99.90;6.10;101519.00;;;;4938092;28;87729;-66
2021/11/06 00:56:54;;;;;;;12.27;8.57;;;6.30;99.90;6.10;101525.00;;;;4936821;28;109786;-66
2021/11/06 00:59:20;;;;;;;17.10;8.07;;;6.30;99.90;6.10;101519.00;;;;4937813;28;96707;-67
2021/11/06 01:01:46;;;;;;;18.87;9.00;;;6.30;99.90;6.20;101518.00;;;;4936894;28;117955;-66
2021/11/06 01:04:11;;;;;;;12.77;7.80;;;6.30;99.90;6.20;101515.00;;;;4937251;28;117178;-66
2021/11/06 01:06:37;;;;;;;17.80;8.00;;;6.30;99.90;6.20;101521.00;;;;4951965;28;109121;-65
2021/11/06 01:09:04;;;;;;;15.60;8.80;;;6.30;99.90;6.20;101521.00;;;;4937752;28;109008;-66
2021/11/06 01:11:30;;;;;;;15.60;7.33;;;6.30;99.90;6.30;101525.00;;;;4937698;28;89015;-67
2021/11/06 01:13:56;;;;;;;13.07;7.63;;;6.40;99.90;6.30;101519.00;;;;4953336;28;87723;-66
2021/11/06 01:16:21;;;;;;;11.77;7.23;;;6.40;99.90;6.30;101521.00;;;;4937450;28;111636;-67
2021/11/06 01:18:47;;;;;;;12.53;6.87;;;6.40;99.90;6.40;101523.00;;;;4936562;28;109718;-67
2021/11/06 01:21:14;;;;;;;13.73;7.43;;;6.50;99.90;6.40;101527.00;;;;4937936;28;88799;-67
2021/11/06 01:23:40;;;;;;;9.07;6.43;;;6.50;99.90;6.40;101534.00;;;;4936440;28;101910;-66
2021/11/06 01:26:05;;;;;;;14.03;7.70;;;6.50;99.90;6.50;101537.00;;;;4937941;28;87903;-66
2021/11/06 01:28:31;;;;;;;12.37;7.50;;;6.60;99.90;6.50;101539.00;;;;4937554;28;87726;-66
2021/11/06 01:30:57;;;;;;;11.17;7.67;;;6.60;99.90;6.50;101536.00;;;;4952781;28;87969;-65
2021/11/06 01:33:23;;;;;;;11.17;7.50;;;6.70;99.90;6.50;101548.00;;;;4936229;28;88721;-65
2021/11/06 01:35:50;;;;;;;14.87;8.13;;;6.70;99.90;6.60;101540.00;;;;4937076;28;110469;-66
2021/11/06 01:38:15;;;;;;;9.40;5.77;;;6.70;99.90;6.60;101543.00;;;;4935775;28;107968;-67
2021/11/06 01:40:42;;;;;;;13.27;7.87;;;6.60;99.90;6.60;101544.00;;;;4936930;28;116742;-66
2021/11/06 01:43:08;;;;;;;14.50;5.67;;;6.70;99.90;6.60;101540.00;;;;4937104;28;87643;-67
2021/11/06 01:45:34;;;;;;;15.50;6.97;;;6.70;99.90;6.70;101553.00;;;;4937756;28;87681;-66
2021/11/06 01:48:00;;;;;;;11.40;6.90;;;6.80;99.90;6.70;101545.00;;;;4936158;28;96741;-67
2021/11/06 01:50:27;;;;;;;13.73;7.60;;;6.80;99.90;6.70;101548.00;;;;4936695;28;110830;-67
2021/11/06 01:52:53;;;;;;;12.93;7.07;;;6.80;99.90;6.70;101551.00;;;;4936433;28;87765;-67
2021/11/06 01:55:19;;;;;;;12.83;7.07;;;6.80;99.90;6.70;101546.00;;;;4937043;28;94705;-67
2021/11/06 01:57:46;;;;;;;11.13;6.90;;;6.90;99.90;6.80;101549.00;;;;4936583;28;87623;-65
2021/11/06 02:00:19;;;;;;;16.13;6.77;;;6.90;99.90;6.70;101553.00;;;;4937972;28;88541;-67
2021/11/06 02:02:46;;;;;;;14.07;7.00;;;6.90;99.90;6.80;101562.00;;;;4936084;28;106078;-67
2021/11/06 02:05:14;;;;;;;17.23;7.13;;;6.90;99.90;6.80;101560.00;;;;4937817;28;86895;-66
2021/11/06 02:07:40;;;;;;;11.40;7.43;;;6.90;99.90;6.80;101561.00;;;;4936449;28;87705;-66
2021/11/06 02:10:07;;;;;;;10.80;6.43;;;6.90;99.90;6.80;101556.00;;;;4935856;28;98452;-66
2021/11/06 02:12:33;;;;;;;15.03;7.70;;;6.90;99.90;6.80;101553.00;;;;4935641;28;88734;-67
2021/11/06 02:15:00;;;;;;;11.60;6.37;;;6.90;99.90;6.80;101547.00;;;;4937319;28;87789;-66
2021/11/06 02:17:26;;;;;;;13.00;6.63;;;6.90;99.90;6.80;101558.00;;;;4936550;28;87829;-66
2021/11/06 02:19:51;;;;;;;8.13;6.37;;;6.90;99.90;6.80;101564.00;;;;4934455;28;117788;-66
2021/11/06 02:22:17;;;;;;;11.03;5.97;;;6.90;99.90;6.80;101551.00;;;;4934870;28;116713;-66
2021/11/06 02:24:43;;;;;;;15.17;7.50;;;6.90;99.90;6.80;101571.00;;;;4935745;28;110100;-66
2021/11/06 02:27:09;;;;;;;13.10;5.77;;;6.90;99.90;6.80;101561.00;;;;4935731;28;108951;-66
2021/11/06 02:29:35;;;;;;;11.00;6.50;;;6.90;99.90;6.80;101558.00;;;;4936750;28;88181;-67
2021/11/06 02:32:01;;;;;;;15.93;7.90;;;7.00;99.90;6.80;101557.00;;;;4951269;28;87901;-66
2021/11/06 02:34:27;;;;;;;11.50;6.83;;;6.90;99.90;6.80;101558.00;;;;4936332;28;88170;-68
2021/11/06 02:36:53;;;;;;;12.60;7.17;;;6.90;99.90;6.80;101552.00;;;;4935334;28;106962;-68
2021/11/06 02:39:23;;;;;;;10.57;6.03;;;6.90;99.90;6.80;101556.00;;;;4950213;28;101003;-68
2021/11/06 02:41:57;;;;;;;7.70;5.77;;;6.90;99.90;6.70;101551.00;;;;4935560;28;88102;-68
2021/11/06 02:44:22;;;;;;;17.87;7.13;;;6.90;99.90;6.70;101553.00;;;;4950727;28;87947;-69
2021/11/06 02:46:48;;;;;;;13.67;6.33;;;6.90;99.90;6.70;101567.00;;;;4935845;28;108962;-67
2021/11/06 02:49:14;;;;;;;9.57;5.53;;;6.80;99.90;6.70;101568.00;;;;4935344;28;118018;-67
2021/11/06 02:51:39;;;;;;;9.13;5.83;;;6.80;99.90;6.60;101564.00;;;;4935861;28;101017;-66
2021/11/06 02:54:05;;;;;;;8.17;5.67;;;6.80;99.90;6.60;101561.00;;;;4936251;28;86980;-68
2021/11/06 02:56:34;;;;;;;11.30;6.37;;;6.70;99.90;6.60;101560.00;;;;4934893;28;87870;-66
2021/11/06 02:59:00;;;;;;;8.87;6.00;;;6.80;99.90;6.50;101558.00;;;;4950312;28;90669;-67
2021/11/06 03:01:26;;;;;;;8.40;6.00;;;6.70;99.90;6.50;101563.00;;;;4934933;28;88886;-66
2021/11/06 03:03:52;;;;;;;15.13;6.07;;;6.70;99.90;6.50;101565.00;;;;4936179;28;87418;-66
2021/11/06 03:06:18;;;;;;;9.90;5.57;;;6.70;99.90;6.50;101573.00;;;;4935997;28;87956;-66
2021/11/06 03:08:45;;;;;;;14.60;6.87;;;6.60;99.90;6.40;101567.00;;;;4935234;28;89521;-67
2021/11/06 03:11:11;;;;;;;11.80;5.73;;;6.60;99.90;6.40;101569.00;;;;4936596;28;88915;-67
2021/11/06 03:13:37;;;;;;;11.00;6.03;;;6.60;99.90;6.40;101570.00;;;;4933389;28;110161;-66
2021/11/06 03:16:03;;;;;;;5.90;4.97;;;6.60;99.90;6.40;101574.00;;;;4935519;28;108933;-66
2021/11/06 03:18:29;;;;;;;13.90;6.10;;;6.50;99.90;6.30;101576.00;;;;4949739;28;103432;-68
2021/11/06 03:20:55;;;;;;;12.50;6.40;;;6.50;99.90;6.30;101582.00;;;;4936284;28;87830;-67
2021/11/06 03:23:23;;;;;;;12.60;6.07;;;6.50;99.90;6.30;101589.00;;;;4935566;28;87801;-66
2021/11/06 03:25:49;;;;;;;12.20;6.20;;;6.40;99.90;6.30;101591.00;;;;4935732;28;88582;-66
2021/11/06 03:28:15;;;;;;;11.00;5.83;;;6.40;99.90;6.20;101593.00;;;;4935500;28;88163;-67
2021/11/06 03:30:41;;;;;;;11.63;5.50;;;6.40;99.90;6.20;101583.00;;;;4935242;28;116957;-68
2021/11/06 03:33:06;;;;;;;6.33;5.03;;;6.40;99.90;6.20;101588.00;;;;4921870;28;109452;-68
2021/11/06 03:35:32;;;;;;;14.97;5.50;;;6.40;99.90;6.20;101584.00;;;;4935243;28;102635;-67
2021/11/06 03:37:58;;;;;;;10.47;5.57;;;6.30;99.90;6.20;101589.00;;;;4934785;28;118032;-69
2021/11/06 03:40:24;;;;;;;8.60;5.27;;;6.30;99.90;6.20;101597.00;;;;4934238;28;117485;-66
2021/11/06 03:42:50;;;;;;;9.70;5.43;;;6.30;99.90;6.20;101593.00;;;;4934661;28;109941;-68
2021/11/06 03:45:15;;;;;;;8.47;4.83;;;6.30;99.90;6.20;101597.00;;;;4949354;28;105998;-69
2021/11/06 03:47:41;;;;;;;11.97;5.17;;;6.30;99.90;6.20;101592.00;;;;4934239;28;101578;-67
2021/11/06 03:50:09;;;;;;;9.03;5.90;;;6.30;99.90;6.10;101584.00;;;;4934095;28;118444;-67
2021/11/06 03:52:37;;;;;;;11.37;6.53;;;6.30;99.90;6.10;101593.00;;;;4935246;28;87701;-69
2021/11/06 03:55:05;;;;;;;5.43;4.37;;;6.30;99.90;6.10;101598.00;;;;4935608;28;87826;-68
2021/11/06 03:57:31;;;;;;;10.17;5.50;;;6.30;99.90;6.10;101593.00;;;;4935606;28;88398;-68
2021/11/06 03:59:56;;;;;;;8.63;5.00;;;6.20;99.90;6.10;101589.00;;;;4934476;28;116813;-66
2021/11/06 04:02:22;;;;;;;9.97;5.10;;;6.30;99.90;6.10;101586.00;;;;4934854;28;109774;-68
2021/11/06 04:04:48;;;;;;;9.20;5.40;;;6.30;99.90;6.10;101590.00;;;;4934900;28;108115;-69
2021/11/06 04:07:14;;;;;;;9.70;6.60;;;6.30;99.90;6.10;101592.00;;;;4949837;28;87122;-68
2021/11/06 04:09:40;;;;;;;10.67;5.60;;;6.30;99.90;6.10;101604.00;;;;4934996;28;87478;-66
2021/11/06 04:12:07;;;;;;;11.50;5.90;;;6.20;99.90;6.10;101598.00;;;;4934828;28;102118;-68
2021/11/06 04:14:32;;;;;;;7.80;4.73;;;6.30;99.90;6.10;101593.00;;;;4935219;28;88993;-67
2021/11/06 04:16:58;;;;;;;9.73;5.67;;;6.30;99.90;6.10;101594.00;;;;4932281;28;105071;-67
2021/11/06 04:19:24;;;;;;;10.80;4.70;;;6.30;99.90;6.10;101599.00;;;;4934947;28;88550;-68
2021/11/06 04:21:50;;;;;;;14.07;6.30;;;6.20;99.90;6.10;101598.00;;;;4934939;28;110423;-66
2021/11/06 04:24:16;;;;;;;5.77;4.67;;;6.20;99.90;6.00;101602.00;;;;4933942;28;108620;-67
2021/11/06 04:26:42;;;;;;;7.53;5.00;;;6.20;99.90;6.00;101601.00;;;;4935128;28;88235;-67
2021/11/06 04:29:08;;;;;;;6.23;5.10;;;6.20;99.90;6.00;101600.00;;;;4934800;28;88052;-67
2021/11/06 04:31:33;;;;;;;5.03;4.47;;;6.10;99.90;5.90;101603.00;;;;4935728;28;87098;-67
2021/11/06 04:34:01;;;;;;;10.87;4.97;;;6.10;99.90;5.90;101614.00;;;;4936500;28;108795;-67
2021/11/06 04:36:27;;;;;;;13.90;6.17;;;6.10;99.90;5.90;101605.00;;;;4938538;28;87849;-67
2021/11/06 04:38:53;;;;;;;10.70;5.93;;;6.00;99.90;5.90;101601.00;;;;4936954;28;105272;-67
2021/11/06 04:41:18;;;;;;;8.20;5.23;;;6.00;99.90;5.90;101606.00;;;;4938104;28;95144;-68
2021/11/06 04:43:45;;;;;;;9.90;4.20;;;6.00;99.90;5.90;101606.00;;;;4937670;28;107427;-67
2021/11/06 04:46:10;;;;;;;11.20;5.70;;;6.10;99.90;5.90;101603.00;;;;4938203;28;88453;-67
2021/11/06 04:48:36;;;;;;;4.90;3.53;;;6.00;99.90;5.90;101624.00;;;;4937769;28;88921;-70
2021/11/06 04:51:02;;;;;;;9.00;4.63;;;6.10;99.90;5.90;101617.00;;;;4936098;28;110229;-68
2021/11/06 04:53:28;;;;;;;6.60;4.60;;;6.00;99.90;5.90;101612.00;;;;4937626;28;87653;-67
2021/11/06 04:55:53;;;;;;;11.80;5.90;;;6.00;99.90;5.90;101622.00;;;;4937865;28;115564;-67
2021/11/06 04:58:19;;;;;;;7.53;5.30;;;6.10;99.90;5.90;101617.00;;;;4937047;28;116915;-66
2021/11/06 05:00:44;;;;;;;7.17;5.50;;;6.00;99.90;5.90;101606.00;;;;4937148;28;110963;-69
2021/11/06 05:03:13;;;;;;;8.60;5.40;;;6.00;99.90;5.90;101619.00;;;;4936763;28;107361;-68
2021/11/06 05:05:40;;;;;;;6.53;4.93;;;6.00;99.90;5.90;101622.00;;;;4937372;28;89209;-68
2021/11/06 05:08:05;;;;;;;8.10;5.07;;;6.00;99.90;5.90;101621.00;;;;4937058;28;101677;-68
2021/11/06 05:10:32;;;;;;;7.87;5.13;;;6.00;99.90;6.00;101625.00;;;;4937131;28;111126;-67
2021/11/06 05:12:57;;;;;;;6.97;5.17;;;6.10;99.90;6.00;101625.00;;;;4937600;28;87839;-66
2021/11/06 05:15:23;;;;;;;10.50;4.97;;;6.10;99.90;6.10;101620.00;;;;4937180;28;103501;-67
2021/11/06 05:17:49;;;;;;;7.40;4.37;;;6.10;99.90;6.10;101627.00;;;;4937448;28;100614;-69
2021/11/06 05:20:15;;;;;;;8.27;5.37;;;6.20;99.90;6.10;101632.00;;;;4937917;28;87407;-67
2021/11/06 05:22:41;;;;;;;9.90;6.30;;;6.30;99.90;6.20;101630.00;;;;4936949;28;110269;-67
2021/11/06 05:25:09;;;;;;;10.63;5.37;;;6.30;99.90;6.20;101623.00;;;;4936529;28;113384;-66
2021/11/06 05:27:36;;;;;;;9.13;5.23;;;6.30;99.90;6.30;101633.00;;;;4951227;28;89137;-67
2021/11/06 05:30:08;;;;;;;10.93;5.37;;;6.40;99.90;6.30;101623.00;;;;4938243;28;87856;-67
2021/11/06 05:32:35;;;;;;;9.33;4.83;;;6.40;99.90;6.30;101629.00;;;;4937014;28;89901;-66
2021/11/06 05:35:01;;;;;;;5.27;4.37;;;6.40;99.90;6.40;101627.00;;;;4937538;28;88714;-67
2021/11/06 05:37:28;;;;;;;8.27;5.43;;;6.50;99.90;6.40;101631.00;;;;4936921;28;87890;-68
2021/11/06 05:39:54;;;;;;;11.07;5.70;;;6.50;99.90;6.40;101630.00;;;;4936725;28;87913;-68
2021/11/06 05:42:20;;;;;;;7.57;5.73;;;6.50;99.90;6.50;101632.00;;;;4936897;28;89176;-67
2021/11/06 05:44:46;;;;;;;9.07;5.10;;;6.60;99.90;6.50;101635.00;;;;4936469;28;94926;-66
2021/11/06 05:47:12;;;;;;;10.50;5.60;;;6.60;99.90;6.50;101625.00;;;;4936030;28;104684;-67
2021/11/06 05:49:37;;;;;;;8.60;5.87;;;6.60;99.90;6.50;101636.00;;;;4937059;28;87538;-67
2021/11/06 05:52:04;;;;;;;8.07;4.53;;;6.70;99.90;6.60;101644.00;;;;4936426;28;88864;-67
2021/11/06 05:54:30;;;;;;;12.40;5.43;;;6.70;99.90;6.60;101630.00;;;;4937141;28;89097;-68
2021/11/06 05:56:55;;;;;;;10.43;6.13;;;6.70;99.90;6.60;101632.00;;;;4936366;28;92643;-68
2021/11/06 05:59:21;;;;;;;9.50;5.37;;;6.80;99.90;6.70;101644.00;;;;4935506;28;111759;-65
2021/11/06 06:01:48;;;;;;;7.37;3.53;;;6.80;99.90;6.70;101637.00;;;;4936341;28;107171;-67
2021/11/06 06:04:13;;;;;;;9.07;4.60;;;6.80;99.90;6.70;101636.00;;;;4936492;28;88224;-66
2021/11/06 06:06:39;;;;;;;12.63;5.97;;;6.90;99.90;6.70;101641.00;;;;4935292;28;117481;-67
2021/11/06 06:09:05;;;;;;;9.90;5.47;;;6.50;99.90;6.70;101639.00;;;;4937330;28;87135;-66
2021/11/06 06:11:31;;;;;;;5.27;4.13;;;6.80;99.90;6.70;101650.00;;;;4936255;28;87846;-67
2021/11/06 06:13:57;;;;;;;7.10;4.53;;;6.90;99.90;6.70;101639.00;;;;4936311;28;94557;-66
2021/11/06 06:16:23;;;;;;;5.27;4.53;;;6.90;99.90;6.80;101645.00;;;;4935746;28;88773;-67
2021/11/06 06:18:49;;;;;;;11.83;5.47;;;6.90;99.90;6.80;101644.00;;;;4936884;28;87847;-65
2021/11/06 06:21:15;;;;;;;7.83;4.37;;;7.00;99.90;6.80;101659.00;;;;4935610;28;109993;-66
2021/11/06 06:23:41;;;;;;;6.13;3.70;;;6.90;99.90;6.90;101658.00;;;;4936418;28;88721;-66
2021/11/06 06:26:08;;;;;;;6.70;4.43;;;7.00;99.90;6.90;101658.00;;;;4935994;28;98139;-65
2021/11/06 06:28:35;;;;;;;8.20;4.93;;;7.00;99.90;6.90;101659.00;;;;4936467;28;87666;-66
2021/11/06 06:31:00;;;;;;;6.90;4.83;;;7.10;99.90;6.90;101658.00;;;;4936115;28;87934;-65
2021/11/06 06:33:26;;;;;;;10.57;5.23;;;7.00;99.90;6.90;101659.00;;;;4935077;28;115041;-66
2021/11/06 06:35:52;;;;;;;8.67;5.63;;;7.00;99.90;6.90;101664.00;;;;4935610;28;116922;-67
2021/11/06 06:38:17;;;;;;;10.37;5.17;;;7.10;99.90;7.00;101657.00;;;;4935227;28;101378;-66
2021/11/06 06:40:43;;;;;;;6.43;5.13;;;7.10;99.90;7.00;101659.00;;;;4935184;28;108675;-67
2021/11/06 06:43:09;;;;;;;10.43;5.33;;;7.10;99.90;7.00;101664.00;;;;4935962;28;88710;-65
2021/11/06 06:45:35;;;;;;;10.57;5.53;;;7.10;99.90;7.00;101650.00;;;;4934821;28;116049;-66
2021/11/06 06:48:00;;;;;;;7.80;4.67;;;7.10;99.90;7.00;101652.00;;;;4936422;28;88183;-65
2021/11/06 06:50:29;;;;;;;7.73;5.23;;;7.10;99.90;7.00;101662.00;;;;4936240;28;87977;-65
2021/11/06 06:52:55;;;;;;;12.50;4.87;;;7.10;99.90;7.00;101663.00;;;;4935450;28;104558;-65
2021/11/06 06:55:21;;;;;;;6.87;4.23;;;7.10;99.90;7.00;101662.00;;;;4933397;28;100868;-66
2021/11/06 06:57:46;;;;;;;7.80;5.60;;;7.10;99.90;7.00;101677.00;;;;4931816;28;108795;-66
2021/11/06 07:00:13;;;;;;;7.73;4.90;;;7.20;99.90;7.10;101681.00;;;;4933293;28;87853;-65
2021/11/06 07:02:39;;;;;;;6.13;4.67;;;7.20;99.90;7.10;101679.00;;;;4931913;28;87733;-66
2021/11/06 07:05:06;;;;;;;9.20;5.87;;;7.20;99.90;7.10;101685.00;;;;4932153;28;91408;-66
2021/11/06 07:07:32;;;;;;;13.17;5.43;;;7.20;99.90;7.20;101683.00;;;;4932167;28;87847;-65
2021/11/06 07:09:58;;;;;;;8.70;4.93;;;7.30;99.90;7.20;101691.00;;;;4932146;28;87963;-66
2021/11/06 07:12:26;;;;;;;7.83;4.80;;;7.30;99.90;7.20;101699.00;;;;4929400;28;118013;-65
2021/11/06 07:14:53;;;;;;;7.73;4.93;;;7.40;99.90;7.30;101695.00;;;;4932254;28;88147;-65
2021/11/06 07:17:19;;;;;;;6.90;4.57;;;7.30;99.90;7.30;101695.00;;;;4931817;28;88039;-65
2021/11/06 07:19:45;;;;;;;8.90;5.67;;;7.80;99.90;7.40;101692.00;;;;4931828;28;108040;-66
2021/11/06 07:22:11;;;;;;;5.83;3.97;;;7.50;99.90;7.40;101699.00;;;;4929463;28;116601;-67
2021/11/06 07:24:36;;;;;;;9.03;5.33;;;7.50;99.90;7.50;101701.00;;;;4931484;28;105243;-66
2021/11/06 07:27:07;;;;;;;6.50;5.13;;;7.60;99.90;7.50;101699.00;;;;4931503;28;105462;-66
2021/11/06 07:29:33;;;;;;;9.17;5.00;;;7.60;99.90;7.50;101692.00;;;;4931810;28;89071;-66
2021/11/06 07:31:59;;;;;;;7.40;4.87;;;7.70;99.90;7.50;101695.00;;;;4932095;28;87963;-66
2021/11/06 07:34:25;;;;;;;7.47;5.63;;;7.60;99.90;7.60;101690.00;;;;4930898;28;88536;-67
2021/11/06 07:36:51;;;;;;;9.53;6.03;;;7.70;99.90;7.60;101691.00;;;;4931153;28;99136;-65
2021/11/06 07:39:17;;;;;;;8.97;4.93;;;7.70;99.90;7.60;101704.00;;;;4932157;28;87922;-66
2021/11/06 07:41:43;;;;;;;8.10;5.80;;;7.70;99.90;7.60;101711.00;;;;4931571;28;88808;-66
2021/11/06 07:44:11;;;;;;;12.87;5.13;;;7.70;99.90;7.70;101710.00;;;;4932093;28;87624;-66
2021/11/06 07:46:37;;;;;;;6.23;4.43;;;7.70;99.90;7.70;101707.00;;;;4932217;28;87332;-66
2021/11/06 07:49:04;;;;;;;6.07;4.87;;;7.80;99.90;7.70;101703.00;;;;4931838;28;87793;-65
2021/11/06 07:51:30;;;;;;;8.23;5.70;;;7.80;99.90;7.80;101711.00;;;;4929923;28;111571;-65
2021/11/06 07:53:57;;;;;;;7.13;5.73;;;7.80;99.90;7.80;101717.00;;;;4931581;28;89331;-65
2021/11/06 07:56:22;;;;;;;6.63;5.30;;;7.90;99.90;7.90;101719.00;;;;4931659;28;87672;-65
2021/11/06 07:58:48;;;;;;;8.80;5.10;;;8.00;99.90;7.90;101721.00;;;;4932325;28;87667;-66
2021/11/06 08:01:14;;;;;;;11.80;5.53;;;8.00;99.90;7.90;101713.00;;;;4930917;28;102109;-66
2021/11/06 08:03:40;;;;;;;11.93;5.80;;;8.00;99.90;7.90;101719.00;;;;4931774;28;88353;-67
2021/11/06 08:06:06;;;;;;;10.57;5.60;;;8.00;99.90;8.00;101714.00;;;;4929633;28;110569;-65
2021/11/06 08:08:32;;;;;;;8.43;5.77;;;8.00;99.90;8.00;101716.00;;;;4932535;28;88015;-66
2021/11/06 08:10:58;;;;;;;8.53;5.23;;;8.10;99.90;8.00;101701.00;;;;4934670;28;95327;-65
2021/11/06 08:13:25;;;;;;;6.83;4.80;;;8.10;99.90;8.10;101716.00;;;;4933772;28;117213;-66
2021/11/06 08:15:51;;;;;;;14.30;5.30;;;8.20;99.90;8.10;101720.00;;;;4934872;28;87923;-65
2021/11/06 08:18:17;;;;;;;7.83;5.53;;;8.20;99.90;8.20;101714.00;;;;4934839;28;89321;-65
2021/11/06 08:20:43;;;;;;;9.50;6.03;;;8.20;99.90;8.20;101715.00;;;;4934980;28;106284;-64
2021/11/06 08:23:09;;;;;;;12.73;6.17;;;8.30;99.90;8.30;101704.00;;;;4933342;28;116722;-65
2021/11/06 08:25:34;;;;;;;11.47;6.17;;;8.30;99.90;8.30;101706.00;;;;4934831;28;87688;-64
2021/11/06 08:28:00;;;;;;;9.77;5.23;;;8.40;99.90;8.40;101706.00;;;;4934687;28;88015;-65
2021/11/06 08:30:27;;;;;;;8.17;5.53;;;8.50;99.90;8.40;101706.00;;;;4933864;28;116943;-65
2021/11/06 08:32:56;;;;;;;10.03;5.90;;;8.50;99.90;8.50;101694.00;;;;4933846;28;87911;-64
2021/11/06 08:35:25;;;;;;;9.27;5.83;;;8.50;99.90;8.60;101697.00;;;;4935158;28;87265;-65
2021/11/06 08:37:52;;;;;;;8.90;5.83;;;8.60;99.90;8.70;101696.00;;;;4934495;28;87878;-65
2021/11/06 08:40:17;;;;;;;8.73;5.40;;;8.60;99.90;8.70;101691.00;;;;4934544;28;91710;-65
2021/11/06 08:42:43;;;;;;;9.83;5.87;;;8.80;99.90;8.80;101688.00;;;;4932755;28;113944;-64
2021/11/06 08:45:12;;;;;;;8.60;5.70;;;8.90;99.90;9.00;101691.00;;;;4933613;28;109318;-65
2021/11/06 08:47:39;;;;;;;7.30;4.83;;;9.00;99.90;9.00;101688.00;;;;4933694;28;87619;-64
2021/11/06 08:50:07;;;;;;;8.27;5.40;;;9.10;99.90;9.10;101692.00;;;;4934619;28;88281;-64
2021/11/06 08:52:34;;;;;;;9.70;5.00;;;9.10;99.90;9.20;101685.00;;;;4933288;28;88030;-64
2021/11/06 08:54:59;;;;;;;9.97;6.50;;;9.20;99.90;9.20;101695.00;;;;4930795;28;96112;-65
2021/11/06 08:57:25;;;;;;;10.30;6.33;;;9.20;99.90;9.20;101684.00;;;;4932965;28;103967;-65
2021/11/06 08:59:56;;;;;;;11.57;6.53;;;9.30;99.90;9.20;101686.00;;;;4933682;28;118081;-65
2021/11/06 09:02:22;;;;;;;7.73;5.10;;;9.30;99.90;9.20;101678.00;;;;4933868;28;88318;-64
2021/11/06 09:04:52;;;;;;;8.30;5.50;;;9.30;99.90;9.30;101685.00;;;;4933658;28;110523;-64
2021/11/06 09:07:18;;;;;;;8.03;5.03;;;9.40;99.90;9.30;101690.00;;;;4933259;28;88946;-64
2021/11/06 09:09:45;;;;;;;9.80;6.07;;;9.40;99.90;9.40;101688.00;;;;4925674;28;117588;-65
2021/11/06 09:12:11;;;;;;;7.27;5.33;;;9.50;99.90;9.50;101700.00;;;;4934280;28;88437;-65
2021/11/06 09:14:37;;;;;;;7.97;4.37;;;9.60;99.90;9.60;101689.00;;;;4934101;28;88081;-65
2021/11/06 09:17:03;;;;;;;9.03;5.70;;;9.60;99.90;9.60;101691.00;;;;4934146;28;87766;-65
2021/11/06 09:19:29;;;;;;;7.77;4.43;;;9.60;99.90;9.70;101698.00;;;;4933022;28;99276;-65
2021/11/06 09:21:54;;;;;;;8.20;5.63;;;9.70;99.90;9.80;101701.00;;;;4931157;28;118784;-65
2021/11/06 09:24:20;;;;;;;5.87;4.10;;;9.80;99.90;9.80;101695.00;;;;4933480;28;87241;-65
2021/11/06 09:26:46;;;;;;;8.93;5.17;;;9.90;99.90;9.90;101695.00;;;;4933184;28;100382;-65
2021/11/06 09:29:15;;;;;;;6.77;4.30;;;9.90;99.90;9.90;101700.00;;;;4933464;28;118160;-66
2021/11/06 09:31:42;;;;;;;7.20;4.27;;;10.00;99.90;10.00;101701.00;;;;4930510;28;89080;-65
2021/11/06 09:34:10;;;;;;;5.53;4.33;;;10.00;99.90;10.10;101702.00;;;;4933573;28;87862;-64
2021/11/06 09:36:36;;;;;;;7.27;4.83;;;10.10;99.90;10.10;101697.00;;;;4933256;28;87617;-65
2021/11/06 09:39:05;;;;;;;6.17;4.07;;;10.20;99.90;10.20;101699.00;;;;4932624;28;106698;-64
2021/11/06 09:41:32;;;;;;;5.00;4.17;;;10.20;99.90;10.20;101702.00;;;;4927859;28;88899;-65
2021/11/06 09:43:58;;;;;;;6.20;4.70;;;10.30;99.90;10.30;101703.00;;;;4933943;28;87671;-65
2021/11/06 09:46:25;;;;;;;17.23;4.47;;;10.40;99.90;10.40;101699.00;;;;4933435;28;87967;-65
2021/11/06 09:48:52;;;;;;;7.40;4.33;;;10.40;99.90;10.50;101704.00;;;;4933512;28;88637;-66
2021/11/06 09:51:20;;;;;;;4.40;3.70;;;10.50;99.90;10.80;101715.00;;;;4932436;28;104681;-65
2021/11/06 09:53:50;;;;;;;6.97;4.20;;;10.70;99.90;10.90;101701.00;;;;4933481;28;87745;-65
2021/11/06 09:56:20;;;;;;;4.53;3.00;;;10.90;99.90;11.00;101704.00;;;;4933226;28;88684;-65
2021/11/06 09:58:48;;;;;;;7.10;3.60;;;11.00;99.90;11.00;101699.00;;;;4932721;28;88945;-65
2021/11/06 10:01:14;;;;;;;3.90;3.47;;;11.10;99.90;11.10;101707.00;;;;4932428;28;88495;-65
2021/11/06 10:03:40;;;;;;;5.00;3.80;;;11.20;99.90;11.30;101708.00;;;;4933357;28;87784;-65
2021/11/06 10:06:21;;;;;;;8.30;4.27;;;11.20;99.90;11.50;101703.00;;;;4932493;28;91638;-65
2021/11/06 10:08:48;;;;;;;11.83;3.97;;;11.50;99.90;11.70;101710.00;;;;4932078;28;99465;-65
2021/11/06 10:11:17;;;;;;;6.50;4.17;;;11.70;99.90;12.00;101697.00;;;;4932608;28;88482;-65
2021/11/06 10:14:10;;;;;;;6.00;3.70;;;11.90;99.90;12.20;101707.00;;;;4933305;28;86938;-64
2021/11/06 10:16:43;;;;;;;6.40;4.57;;;12.20;99.90;12.40;101692.00;;;;4930925;28;88137;-65
2021/11/06 10:19:29;;;;;;;5.63;3.53;;;12.40;99.90;12.60;101695.00;;;;4933002;28;90496;-65
2021/11/06 10:22:09;;;;;;;5.00;3.80;;;12.50;99.90;12.70;101696.00;;;;4932131;28;89024;-64
2021/11/06 10:24:51;;;;;;;7.70;4.80;;;12.70;99.90;12.80;101684.00;;;;4932604;28;87744;-64
2021/11/06 10:27:29;;;;;;;8.83;4.67;;;12.80;99.90;12.80;101692.00;;;;4932706;28;87756;-65
2021/11/06 10:30:16;;;;;;;5.33;3.33;;;12.80;99.90;12.90;101689.00;;;;4931976;28;90943;-65
2021/11/06 10:33:02;;;;;;;6.10;3.03;;;12.90;99.90;13.00;101693.00;;;;4932592;28;87764;-65
2021/11/06 10:35:40;;;;;;;4.10;3.17;;;13.00;99.90;13.10;101688.00;;;;4925994;28;87863;-64
2021/11/06 10:38:12;;;;;;;5.23;3.03;;;13.10;99.90;13.20;101682.00;;;;4932305;28;87930;-65
2021/11/06 10:40:46;;;;;;;5.20;3.10;;;13.20;99.90;13.30;101687.00;;;;4933017;28;87260;-66
2021/11/06 10:43:15;;;;;;;4.63;2.60;;;13.20;99.90;13.40;101690.00;;;;4932530;28;87832;-65
2021/11/06 10:45:48;;;;;;;6.23;3.33;;;13.30;99.90;13.50;101682.00;;;;4933138;28;88263;-65
2021/11/06 10:48:20;;;;;;;4.00;3.27;;;13.50;99.90;13.70;101686.00;;;;4931412;28;90553;-65
2021/11/06 10:51:07;;;;;;;3.73;2.63;;;13.60;99.90;13.70;101687.00;;;;4931663;28;88615;-66
2021/11/06 10:53:50;;;;;;;2.67;1.83;;;13.70;98.90;13.70;101690.00;;;;4931346;28;88601;-66